sensor_id;sensor_type;location;lat;lon;timestamp;P1;durP1;ratioP1;P2;durP2;ratioP2
42198;SDS011;27868;45.184;5.786;2022-10-19T00:01:00;8.98;;;4.22;;
42198;SDS011;27868;45.184;5.786;2022-10-19T00:03:45;7.68;;;4.18;;
42198;SDS011;27868;45.184;5.786;2022-10-19T00:06:32;9.05;;;4.15;;
42198;SDS011;27868;45.184;5.786;2022-10-19T00:09:18;9.52;;;3.75;;
42198;SDS011;27868;45.184;5.786;2022-10-19T00:12:03;12.98;;;4.55;;
42198;SDS011;27868;45.184;5.786;2022-10-19T00:14:48;9.90;;;4.28;;
42198;SDS011;27868;45.184;5.786;2022-10-19T00:17:33;8.30;;;4.00;;
42198;SDS011;27868;45.184;5.786;2022-10-19T00:20:18;10.63;;;4.95;;
42198;SDS011;27868;45.184;5.786;2022-10-19T00:23:03;8.30;;;3.90;;
42198;SDS011;27868;45.184;5.786;2022-10-19T00:25:57;8.48;;;3.83;;
42198;SDS011;27868;45.184;5.786;2022-10-19T00:28:42;6.07;;;3.63;;
42198;SDS011;27868;45.184;5.786;2022-10-19T00:31:27;7.55;;;3.78;;
42198;SDS011;27868;45.184;5.786;2022-10-19T00:34:12;7.03;;;3.90;;
42198;SDS011;27868;45.184;5.786;2022-10-19T00:36:57;14.52;;;4.65;;
42198;SDS011;27868;45.184;5.786;2022-10-19T00:39:42;7.38;;;3.58;;
42198;SDS011;27868;45.184;5.786;2022-10-19T00:42:26;11.43;;;4.15;;
42198;SDS011;27868;45.184;5.786;2022-10-19T00:45:15;7.93;;;3.88;;
42198;SDS011;27868;45.184;5.786;2022-10-19T00:48:00;6.15;;;3.42;;
42198;SDS011;27868;45.184;5.786;2022-10-19T00:50:45;7.45;;;3.60;;
42198;SDS011;27868;45.184;5.786;2022-10-19T00:53:31;7.93;;;3.65;;
42198;SDS011;27868;45.184;5.786;2022-10-19T00:56:16;7.53;;;3.85;;
42198;SDS011;27868;45.184;5.786;2022-10-19T00:59:03;6.28;;;3.50;;
42198;SDS011;27868;45.184;5.786;2022-10-19T01:01:48;11.07;;;3.92;;
42198;SDS011;27868;45.184;5.786;2022-10-19T01:04:34;11.73;;;4.97;;
42198;SDS011;27868;45.184;5.786;2022-10-19T01:07:21;9.20;;;4.35;;
42198;SDS011;27868;45.184;5.786;2022-10-19T01:10:08;13.15;;;4.47;;
42198;SDS011;27868;45.184;5.786;2022-10-19T01:12:57;8.20;;;3.88;;
42198;SDS011;27868;45.184;5.786;2022-10-19T01:16:56;6.78;;;4.07;;
42198;SDS011;27868;45.184;5.786;2022-10-19T01:19:27;8.82;;;4.03;;
42198;SDS011;27868;45.184;5.786;2022-10-19T01:34:43;7.45;;;4.05;;
42198;SDS011;27868;45.184;5.786;2022-10-19T01:37:47;9.15;;;4.15;;
42198;SDS011;27868;45.184;5.786;2022-10-19T01:46:26;12.88;;;5.00;;
42198;SDS011;27868;45.184;5.786;2022-10-19T01:52:39;7.43;;;4.32;;
42198;SDS011;27868;45.184;5.786;2022-10-19T01:55:25;9.73;;;4.47;;
42198;SDS011;27868;45.184;5.786;2022-10-19T01:58:12;7.57;;;4.68;;
42198;SDS011;27868;45.184;5.786;2022-10-19T02:01:01;13.30;;;4.30;;
42198;SDS011;27868;45.184;5.786;2022-10-19T02:03:50;7.30;;;4.15;;
42198;SDS011;27868;45.184;5.786;2022-10-19T02:06:37;11.05;;;4.80;;
42198;SDS011;27868;45.184;5.786;2022-10-19T02:09:22;9.73;;;4.70;;
42198;SDS011;27868;45.184;5.786;2022-10-19T02:12:08;8.70;;;5.00;;
42198;SDS011;27868;45.184;5.786;2022-10-19T02:14:55;12.68;;;4.65;;
42198;SDS011;27868;45.184;5.786;2022-10-19T02:17:49;8.98;;;4.53;;
42198;SDS011;27868;45.184;5.786;2022-10-19T02:20:35;8.27;;;4.75;;
42198;SDS011;27868;45.184;5.786;2022-10-19T02:23:21;9.93;;;4.70;;
42198;SDS011;27868;45.184;5.786;2022-10-19T02:26:09;8.63;;;4.70;;
42198;SDS011;27868;45.184;5.786;2022-10-19T02:28:54;8.45;;;4.53;;
42198;SDS011;27868;45.184;5.786;2022-10-19T02:31:39;11.18;;;4.47;;
42198;SDS011;27868;45.184;5.786;2022-10-19T02:34:25;10.55;;;5.07;;
42198;SDS011;27868;45.184;5.786;2022-10-19T02:37:10;13.18;;;4.47;;
42198;SDS011;27868;45.184;5.786;2022-10-19T02:39:54;7.90;;;4.25;;
42198;SDS011;27868;45.184;5.786;2022-10-19T02:42:40;10.32;;;4.50;;
42198;SDS011;27868;45.184;5.786;2022-10-19T02:45:40;9.20;;;4.10;;
42198;SDS011;27868;45.184;5.786;2022-10-19T02:48:30;10.10;;;4.50;;
42198;SDS011;27868;45.184;5.786;2022-10-19T02:51:30;18.63;;;5.30;;
42198;SDS011;27868;45.184;5.786;2022-10-19T02:54:18;9.77;;;4.05;;
42198;SDS011;27868;45.184;5.786;2022-10-19T02:57:03;8.95;;;4.85;;
42198;SDS011;27868;45.184;5.786;2022-10-19T03:00:05;8.57;;;4.93;;
42198;SDS011;27868;45.184;5.786;2022-10-19T03:02:51;6.00;;;4.00;;
42198;SDS011;27868;45.184;5.786;2022-10-19T03:05:36;11.05;;;4.82;;
42198;SDS011;27868;45.184;5.786;2022-10-19T03:08:20;8.32;;;4.47;;
42198;SDS011;27868;45.184;5.786;2022-10-19T03:11:05;7.75;;;4.13;;
42198;SDS011;27868;45.184;5.786;2022-10-19T03:13:50;7.18;;;4.38;;
42198;SDS011;27868;45.184;5.786;2022-10-19T03:16:34;8.93;;;4.43;;
42198;SDS011;27868;45.184;5.786;2022-10-19T03:19:19;9.95;;;4.57;;
42198;SDS011;27868;45.184;5.786;2022-10-19T03:22:04;10.57;;;4.30;;
42198;SDS011;27868;45.184;5.786;2022-10-19T03:24:49;8.85;;;4.38;;
42198;SDS011;27868;45.184;5.786;2022-10-19T03:27:34;10.88;;;4.20;;
42198;SDS011;27868;45.184;5.786;2022-10-19T03:30:18;13.50;;;4.60;;
42198;SDS011;27868;45.184;5.786;2022-10-19T03:33:03;11.73;;;4.45;;
42198;SDS011;27868;45.184;5.786;2022-10-19T03:35:47;9.48;;;4.85;;
42198;SDS011;27868;45.184;5.786;2022-10-19T03:38:33;10.43;;;4.80;;
42198;SDS011;27868;45.184;5.786;2022-10-19T03:41:18;7.25;;;3.92;;
42198;SDS011;27868;45.184;5.786;2022-10-19T03:44:05;9.32;;;4.18;;
42198;SDS011;27868;45.184;5.786;2022-10-19T03:46:50;8.38;;;4.22;;
42198;SDS011;27868;45.184;5.786;2022-10-19T03:49:35;10.23;;;5.32;;
42198;SDS011;27868;45.184;5.786;2022-10-19T03:52:19;7.90;;;4.20;;
42198;SDS011;27868;45.184;5.786;2022-10-19T03:55:04;8.18;;;4.68;;
42198;SDS011;27868;45.184;5.786;2022-10-19T03:57:49;10.98;;;4.20;;
42198;SDS011;27868;45.184;5.786;2022-10-19T04:00:34;8.40;;;4.50;;
42198;SDS011;27868;45.184;5.786;2022-10-19T04:03:18;7.70;;;4.22;;
42198;SDS011;27868;45.184;5.786;2022-10-19T04:06:04;10.57;;;5.10;;
42198;SDS011;27868;45.184;5.786;2022-10-19T04:08:50;10.95;;;4.35;;
42198;SDS011;27868;45.184;5.786;2022-10-19T04:11:36;9.23;;;4.43;;
42198;SDS011;27868;45.184;5.786;2022-10-19T04:14:21;12.40;;;4.38;;
42198;SDS011;27868;45.184;5.786;2022-10-19T04:17:06;8.40;;;4.78;;
42198;SDS011;27868;45.184;5.786;2022-10-19T04:19:51;13.80;;;4.60;;
42198;SDS011;27868;45.184;5.786;2022-10-19T04:22:35;9.95;;;4.93;;
42198;SDS011;27868;45.184;5.786;2022-10-19T04:25:20;13.52;;;4.78;;
42198;SDS011;27868;45.184;5.786;2022-10-19T04:28:05;10.57;;;4.20;;
42198;SDS011;27868;45.184;5.786;2022-10-19T04:30:49;8.23;;;4.40;;
42198;SDS011;27868;45.184;5.786;2022-10-19T04:33:34;12.77;;;4.57;;
42198;SDS011;27868;45.184;5.786;2022-10-19T04:36:18;8.88;;;3.58;;
42198;SDS011;27868;45.184;5.786;2022-10-19T04:39:03;9.25;;;3.97;;
42198;SDS011;27868;45.184;5.786;2022-10-19T04:41:48;7.85;;;3.75;;
42198;SDS011;27868;45.184;5.786;2022-10-19T04:44:33;5.63;;;4.00;;
42198;SDS011;27868;45.184;5.786;2022-10-19T04:47:17;7.80;;;3.50;;
42198;SDS011;27868;45.184;5.786;2022-10-19T04:50:02;6.57;;;3.90;;
42198;SDS011;27868;45.184;5.786;2022-10-19T04:52:46;6.38;;;4.03;;
42198;SDS011;27868;45.184;5.786;2022-10-19T04:55:31;7.50;;;4.10;;
42198;SDS011;27868;45.184;5.786;2022-10-19T04:58:16;6.75;;;3.90;;
42198;SDS011;27868;45.184;5.786;2022-10-19T05:01:08;6.45;;;4.03;;
42198;SDS011;27868;45.184;5.786;2022-10-19T05:03:54;9.20;;;4.22;;
42198;SDS011;27868;45.184;5.786;2022-10-19T05:06:40;9.13;;;4.43;;
42198;SDS011;27868;45.184;5.786;2022-10-19T05:09:25;15.90;;;4.65;;
42198;SDS011;27868;45.184;5.786;2022-10-19T05:12:09;11.25;;;5.18;;
42198;SDS011;27868;45.184;5.786;2022-10-19T05:14:54;8.85;;;4.47;;
42198;SDS011;27868;45.184;5.786;2022-10-19T05:17:38;9.77;;;4.32;;
42198;SDS011;27868;45.184;5.786;2022-10-19T05:20:23;13.15;;;4.68;;
42198;SDS011;27868;45.184;5.786;2022-10-19T05:23:07;10.02;;;4.63;;
42198;SDS011;27868;45.184;5.786;2022-10-19T05:26:05;9.65;;;4.45;;
42198;SDS011;27868;45.184;5.786;2022-10-19T05:28:53;11.20;;;4.63;;
42198;SDS011;27868;45.184;5.786;2022-10-19T05:31:39;7.55;;;4.63;;
42198;SDS011;27868;45.184;5.786;2022-10-19T05:34:24;11.55;;;4.72;;
42198;SDS011;27868;45.184;5.786;2022-10-19T05:37:08;14.13;;;5.25;;
42198;SDS011;27868;45.184;5.786;2022-10-19T05:39:53;15.10;;;4.70;;
42198;SDS011;27868;45.184;5.786;2022-10-19T05:42:38;8.18;;;4.05;;
42198;SDS011;27868;45.184;5.786;2022-10-19T05:45:22;13.45;;;5.25;;
42198;SDS011;27868;45.184;5.786;2022-10-19T05:48:07;9.95;;;4.78;;
42198;SDS011;27868;45.184;5.786;2022-10-19T05:50:52;12.02;;;5.43;;
42198;SDS011;27868;45.184;5.786;2022-10-19T05:53:37;7.40;;;4.10;;
42198;SDS011;27868;45.184;5.786;2022-10-19T05:56:24;7.90;;;4.05;;
42198;SDS011;27868;45.184;5.786;2022-10-19T05:59:15;10.10;;;4.20;;
42198;SDS011;27868;45.184;5.786;2022-10-19T06:02:01;11.02;;;4.60;;
42198;SDS011;27868;45.184;5.786;2022-10-19T06:04:46;9.48;;;4.22;;
42198;SDS011;27868;45.184;5.786;2022-10-19T06:07:30;13.00;;;3.80;;
42198;SDS011;27868;45.184;5.786;2022-10-19T06:10:15;10.02;;;4.57;;
42198;SDS011;27868;45.184;5.786;2022-10-19T06:13:00;8.82;;;4.45;;
42198;SDS011;27868;45.184;5.786;2022-10-19T06:15:48;9.65;;;4.45;;
42198;SDS011;27868;45.184;5.786;2022-10-19T06:18:34;12.60;;;4.63;;
42198;SDS011;27868;45.184;5.786;2022-10-19T06:21:20;11.30;;;4.30;;
42198;SDS011;27868;45.184;5.786;2022-10-19T06:24:06;8.25;;;4.55;;
42198;SDS011;27868;45.184;5.786;2022-10-19T06:26:50;13.43;;;4.30;;
42198;SDS011;27868;45.184;5.786;2022-10-19T06:29:34;11.27;;;4.35;;
42198;SDS011;27868;45.184;5.786;2022-10-19T06:32:19;12.65;;;4.43;;
42198;SDS011;27868;45.184;5.786;2022-10-19T06:35:04;9.68;;;4.35;;
42198;SDS011;27868;45.184;5.786;2022-10-19T06:37:49;13.60;;;4.35;;
42198;SDS011;27868;45.184;5.786;2022-10-19T06:40:33;8.45;;;4.28;;
42198;SDS011;27868;45.184;5.786;2022-10-19T06:43:19;9.73;;;5.03;;
42198;SDS011;27868;45.184;5.786;2022-10-19T06:46:04;7.10;;;4.32;;
42198;SDS011;27868;45.184;5.786;2022-10-19T06:48:54;8.40;;;4.82;;
42198;SDS011;27868;45.184;5.786;2022-10-19T06:51:43;10.15;;;4.28;;
42198;SDS011;27868;45.184;5.786;2022-10-19T06:54:28;8.60;;;4.57;;
42198;SDS011;27868;45.184;5.786;2022-10-19T06:57:12;9.32;;;4.43;;
42198;SDS011;27868;45.184;5.786;2022-10-19T06:59:57;9.70;;;3.97;;
42198;SDS011;27868;45.184;5.786;2022-10-19T07:02:41;9.95;;;4.13;;
42198;SDS011;27868;45.184;5.786;2022-10-19T07:05:26;12.02;;;5.00;;
42198;SDS011;27868;45.184;5.786;2022-10-19T07:08:11;13.95;;;5.20;;
42198;SDS011;27868;45.184;5.786;2022-10-19T07:10:57;11.10;;;4.63;;
42198;SDS011;27868;45.184;5.786;2022-10-19T07:13:44;11.20;;;4.50;;
42198;SDS011;27868;45.184;5.786;2022-10-19T07:16:29;16.23;;;4.57;;
42198;SDS011;27868;45.184;5.786;2022-10-19T07:19:13;10.52;;;5.03;;
42198;SDS011;27868;45.184;5.786;2022-10-19T07:21:58;15.23;;;5.07;;
42198;SDS011;27868;45.184;5.786;2022-10-19T07:24:43;9.25;;;5.10;;
42198;SDS011;27868;45.184;5.786;2022-10-19T07:27:28;12.82;;;4.80;;
42198;SDS011;27868;45.184;5.786;2022-10-19T07:30:12;17.35;;;5.05;;
42198;SDS011;27868;45.184;5.786;2022-10-19T07:32:57;15.25;;;6.50;;
42198;SDS011;27868;45.184;5.786;2022-10-19T07:35:41;15.63;;;5.25;;
42198;SDS011;27868;45.184;5.786;2022-10-19T07:38:26;14.77;;;5.25;;
42198;SDS011;27868;45.184;5.786;2022-10-19T07:41:13;13.95;;;5.60;;
42198;SDS011;27868;45.184;5.786;2022-10-19T07:44:00;12.18;;;5.50;;
42198;SDS011;27868;45.184;5.786;2022-10-19T07:46:45;15.15;;;5.32;;
42198;SDS011;27868;45.184;5.786;2022-10-19T07:49:29;18.73;;;6.63;;
42198;SDS011;27868;45.184;5.786;2022-10-19T07:52:13;14.77;;;6.20;;
42198;SDS011;27868;45.184;5.786;2022-10-19T07:54:58;17.23;;;5.47;;
42198;SDS011;27868;45.184;5.786;2022-10-19T07:57:47;10.82;;;5.50;;
42198;SDS011;27868;45.184;5.786;2022-10-19T08:00:32;20.55;;;5.82;;
42198;SDS011;27868;45.184;5.786;2022-10-19T08:03:17;11.95;;;5.68;;
42198;SDS011;27868;45.184;5.786;2022-10-19T08:06:03;12.38;;;5.70;;
42198;SDS011;27868;45.184;5.786;2022-10-19T08:08:49;13.90;;;5.22;;
42198;SDS011;27868;45.184;5.786;2022-10-19T08:11:34;11.45;;;5.82;;
42198;SDS011;27868;45.184;5.786;2022-10-19T08:14:19;13.68;;;5.85;;
42198;SDS011;27868;45.184;5.786;2022-10-19T08:17:04;12.65;;;5.95;;
42198;SDS011;27868;45.184;5.786;2022-10-19T08:19:48;10.23;;;5.20;;
42198;SDS011;27868;45.184;5.786;2022-10-19T08:22:33;12.30;;;5.25;;
42198;SDS011;27868;45.184;5.786;2022-10-19T08:25:17;13.77;;;5.70;;
42198;SDS011;27868;45.184;5.786;2022-10-19T08:28:03;10.43;;;5.70;;
42198;SDS011;27868;45.184;5.786;2022-10-19T08:30:47;15.40;;;5.80;;
42198;SDS011;27868;45.184;5.786;2022-10-19T08:33:32;15.60;;;5.68;;
42198;SDS011;27868;45.184;5.786;2022-10-19T08:36:16;16.52;;;5.72;;
42198;SDS011;27868;45.184;5.786;2022-10-19T08:39:03;19.33;;;6.88;;
42198;SDS011;27868;45.184;5.786;2022-10-19T08:41:52;15.23;;;6.10;;
42198;SDS011;27868;45.184;5.786;2022-10-19T08:51:16;11.70;;;5.30;;
42198;SDS011;27868;45.184;5.786;2022-10-19T08:54:01;13.88;;;4.72;;
42198;SDS011;27868;45.184;5.786;2022-10-19T08:57:07;10.30;;;4.05;;
42198;SDS011;27868;45.184;5.786;2022-10-19T09:03:21;13.27;;;4.18;;
42198;SDS011;27868;45.184;5.786;2022-10-19T09:06:16;10.80;;;3.85;;
42198;SDS011;27868;45.184;5.786;2022-10-19T09:09:07;20.08;;;5.10;;
42198;SDS011;27868;45.184;5.786;2022-10-19T09:11:57;7.82;;;3.58;;
42198;SDS011;27868;45.184;5.786;2022-10-19T09:15:02;11.50;;;4.20;;
42198;SDS011;27868;45.184;5.786;2022-10-19T09:17:50;11.80;;;4.05;;
42198;SDS011;27868;45.184;5.786;2022-10-19T09:20:36;14.68;;;4.03;;
42198;SDS011;27868;45.184;5.786;2022-10-19T09:26:32;14.43;;;3.42;;
42198;SDS011;27868;45.184;5.786;2022-10-19T09:29:29;7.60;;;3.22;;
42198;SDS011;27868;45.184;5.786;2022-10-19T09:32:34;11.17;;;3.53;;
42198;SDS011;27868;45.184;5.786;2022-10-19T09:38:14;9.30;;;3.60;;
42198;SDS011;27868;45.184;5.786;2022-10-19T09:41:19;15.70;;;3.53;;
42198;SDS011;27868;45.184;5.786;2022-10-19T09:44:05;8.77;;;3.72;;
42198;SDS011;27868;45.184;5.786;2022-10-19T09:46:51;7.88;;;3.38;;
42198;SDS011;27868;45.184;5.786;2022-10-19T09:49:46;9.13;;;4.15;;
42198;SDS011;27868;45.184;5.786;2022-10-19T09:55:35;6.72;;;3.75;;
42198;SDS011;27868;45.184;5.786;2022-10-19T09:58:23;11.88;;;3.10;;
42198;SDS011;27868;45.184;5.786;2022-10-19T10:01:09;9.50;;;3.13;;
42198;SDS011;27868;45.184;5.786;2022-10-19T10:04:19;18.23;;;3.67;;
42198;SDS011;27868;45.184;5.786;2022-10-19T10:07:04;13.13;;;3.58;;
42198;SDS011;27868;45.184;5.786;2022-10-19T10:09:49;12.15;;;3.58;;
42198;SDS011;27868;45.184;5.786;2022-10-19T10:12:36;11.32;;;3.38;;
42198;SDS011;27868;45.184;5.786;2022-10-19T10:15:24;15.90;;;4.03;;
42198;SDS011;27868;45.184;5.786;2022-10-19T10:18:13;18.33;;;4.57;;
42198;SDS011;27868;45.184;5.786;2022-10-19T10:24:05;8.80;;;3.95;;
42198;SDS011;27868;45.184;5.786;2022-10-19T10:26:54;14.23;;;3.90;;
42198;SDS011;27868;45.184;5.786;2022-10-19T10:29:51;10.70;;;3.47;;
42198;SDS011;27868;45.184;5.786;2022-10-19T10:32:41;11.18;;;3.67;;
42198;SDS011;27868;45.184;5.786;2022-10-19T10:35:35;14.93;;;4.05;;
42198;SDS011;27868;45.184;5.786;2022-10-19T10:38:21;10.68;;;3.75;;
42198;SDS011;27868;45.184;5.786;2022-10-19T10:41:17;14.30;;;3.67;;
42198;SDS011;27868;45.184;5.786;2022-10-19T10:44:06;10.80;;;3.38;;
42198;SDS011;27868;45.184;5.786;2022-10-19T10:47:13;13.45;;;3.10;;
42198;SDS011;27868;45.184;5.786;2022-10-19T10:50:02;9.40;;;3.45;;
42198;SDS011;27868;45.184;5.786;2022-10-19T10:52:56;9.45;;;2.90;;
42198;SDS011;27868;45.184;5.786;2022-10-19T10:55:46;12.45;;;3.05;;
42198;SDS011;27868;45.184;5.786;2022-10-19T10:58:41;12.07;;;3.08;;
42198;SDS011;27868;45.184;5.786;2022-10-19T11:01:41;14.63;;;3.53;;
42198;SDS011;27868;45.184;5.786;2022-10-19T11:04:44;11.23;;;3.28;;
42198;SDS011;27868;45.184;5.786;2022-10-19T11:07:34;13.85;;;3.13;;
42198;SDS011;27868;45.184;5.786;2022-10-19T11:10:25;13.18;;;3.03;;
42198;SDS011;27868;45.184;5.786;2022-10-19T11:16:52;10.30;;;3.30;;
42198;SDS011;27868;45.184;5.786;2022-10-19T11:19:40;11.25;;;2.80;;
42198;SDS011;27868;45.184;5.786;2022-10-19T11:31:01;10.73;;;3.75;;
42198;SDS011;27868;45.184;5.786;2022-10-19T11:36:52;12.63;;;2.28;;
42198;SDS011;27868;45.184;5.786;2022-10-19T11:39:44;13.88;;;2.88;;
42198;SDS011;27868;45.184;5.786;2022-10-19T11:42:42;13.07;;;2.50;;
42198;SDS011;27868;45.184;5.786;2022-10-19T11:49:11;11.95;;;2.92;;
42198;SDS011;27868;45.184;5.786;2022-10-19T11:55:39;8.70;;;2.33;;
42198;SDS011;27868;45.184;5.786;2022-10-19T12:04:51;13.40;;;3.33;;
42198;SDS011;27868;45.184;5.786;2022-10-19T12:14:31;18.45;;;3.83;;
42198;SDS011;27868;45.184;5.786;2022-10-19T12:17:22;11.60;;;2.42;;
42198;SDS011;27868;45.184;5.786;2022-10-19T12:23:22;13.30;;;2.25;;
42198;SDS011;27868;45.184;5.786;2022-10-19T12:26:14;15.75;;;3.63;;
42198;SDS011;27868;45.184;5.786;2022-10-19T12:29:04;8.43;;;2.53;;
42198;SDS011;27868;45.184;5.786;2022-10-19T12:31:54;9.32;;;2.70;;
42198;SDS011;27868;45.184;5.786;2022-10-19T12:37:45;11.40;;;2.30;;
42198;SDS011;27868;45.184;5.786;2022-10-19T12:40:45;21.83;;;3.55;;
42198;SDS011;27868;45.184;5.786;2022-10-19T12:46:50;13.00;;;2.83;;
42198;SDS011;27868;45.184;5.786;2022-10-19T12:49:42;16.05;;;3.00;;
42198;SDS011;27868;45.184;5.786;2022-10-19T12:52:44;6.10;;;2.35;;
42198;SDS011;27868;45.184;5.786;2022-10-19T12:55:31;9.45;;;2.38;;
42198;SDS011;27868;45.184;5.786;2022-10-19T12:58:18;7.75;;;2.25;;
42198;SDS011;27868;45.184;5.786;2022-10-19T13:01:06;10.07;;;2.33;;
42198;SDS011;27868;45.184;5.786;2022-10-19T13:04:09;9.45;;;2.70;;
42198;SDS011;27868;45.184;5.786;2022-10-19T13:09:41;10.85;;;2.83;;
42198;SDS011;27868;45.184;5.786;2022-10-19T13:12:39;14.23;;;3.13;;
42198;SDS011;27868;45.184;5.786;2022-10-19T13:21:45;12.40;;;2.22;;
42198;SDS011;27868;45.184;5.786;2022-10-19T13:24:33;10.38;;;2.47;;
42198;SDS011;27868;45.184;5.786;2022-10-19T13:27:23;14.25;;;2.58;;
42198;SDS011;27868;45.184;5.786;2022-10-19T13:36:08;9.43;;;2.80;;
42198;SDS011;27868;45.184;5.786;2022-10-19T13:41:46;18.27;;;3.10;;
42198;SDS011;27868;45.184;5.786;2022-10-19T13:44:32;10.55;;;2.85;;
42198;SDS011;27868;45.184;5.786;2022-10-19T13:47:28;15.43;;;2.60;;
42198;SDS011;27868;45.184;5.786;2022-10-19T13:50:31;15.05;;;2.60;;
42198;SDS011;27868;45.184;5.786;2022-10-19T13:59:50;17.17;;;2.85;;
42198;SDS011;27868;45.184;5.786;2022-10-19T14:03:15;15.88;;;3.25;;
42198;SDS011;27868;45.184;5.786;2022-10-19T14:06:26;13.18;;;2.08;;
42198;SDS011;27868;45.184;5.786;2022-10-19T14:09:51;9.10;;;2.20;;
42198;SDS011;27868;45.184;5.786;2022-10-19T14:12:47;12.30;;;2.17;;
42198;SDS011;27868;45.184;5.786;2022-10-19T14:15:33;10.70;;;2.60;;
42198;SDS011;27868;45.184;5.786;2022-10-19T14:21:07;12.38;;;2.88;;
42198;SDS011;27868;45.184;5.786;2022-10-19T14:23:53;12.20;;;2.88;;
42198;SDS011;27868;45.184;5.786;2022-10-19T14:26:37;13.05;;;2.50;;
42198;SDS011;27868;45.184;5.786;2022-10-19T14:29:21;10.70;;;2.22;;
42198;SDS011;27868;45.184;5.786;2022-10-19T14:32:07;13.15;;;2.53;;
42198;SDS011;27868;45.184;5.786;2022-10-19T14:35:01;10.88;;;2.38;;
42198;SDS011;27868;45.184;5.786;2022-10-19T14:37:49;11.20;;;2.65;;
42198;SDS011;27868;45.184;5.786;2022-10-19T14:40:38;13.73;;;2.75;;
42198;SDS011;27868;45.184;5.786;2022-10-19T14:46:13;11.90;;;2.60;;
42198;SDS011;27868;45.184;5.786;2022-10-19T14:49:05;9.20;;;2.00;;
42198;SDS011;27868;45.184;5.786;2022-10-19T14:51:54;8.57;;;2.28;;
42198;SDS011;27868;45.184;5.786;2022-10-19T14:54:44;8.60;;;2.65;;
42198;SDS011;27868;45.184;5.786;2022-10-19T14:57:32;16.00;;;3.08;;
42198;SDS011;27868;45.184;5.786;2022-10-19T15:00:20;9.80;;;2.38;;
42198;SDS011;27868;45.184;5.786;2022-10-19T15:03:08;9.02;;;2.33;;
42198;SDS011;27868;45.184;5.786;2022-10-19T15:06:01;12.88;;;2.70;;
42198;SDS011;27868;45.184;5.786;2022-10-19T15:08:53;9.95;;;2.70;;
42198;SDS011;27868;45.184;5.786;2022-10-19T15:11:44;11.10;;;2.38;;
42198;SDS011;27868;45.184;5.786;2022-10-19T15:14:30;8.10;;;2.58;;
42198;SDS011;27868;45.184;5.786;2022-10-19T15:17:22;10.07;;;2.40;;
42198;SDS011;27868;45.184;5.786;2022-10-19T15:20:28;13.20;;;2.08;;
42198;SDS011;27868;45.184;5.786;2022-10-19T15:29:09;8.52;;;2.25;;
42198;SDS011;27868;45.184;5.786;2022-10-19T15:32:17;7.35;;;2.30;;
42198;SDS011;27868;45.184;5.786;2022-10-19T15:40:49;9.75;;;2.95;;
42198;SDS011;27868;45.184;5.786;2022-10-19T15:43:48;11.07;;;2.63;;
42198;SDS011;27868;45.184;5.786;2022-10-19T15:46:35;10.57;;;2.40;;
42198;SDS011;27868;45.184;5.786;2022-10-19T15:49:58;12.80;;;3.47;;
42198;SDS011;27868;45.184;5.786;2022-10-19T15:52:44;12.73;;;2.60;;
42198;SDS011;27868;45.184;5.786;2022-10-19T15:55:29;9.98;;;2.92;;
42198;SDS011;27868;45.184;5.786;2022-10-19T15:58:13;8.18;;;2.53;;
42198;SDS011;27868;45.184;5.786;2022-10-19T16:00:58;12.95;;;2.83;;
42198;SDS011;27868;45.184;5.786;2022-10-19T16:03:43;12.63;;;3.13;;
42198;SDS011;27868;45.184;5.786;2022-10-19T16:06:30;10.88;;;2.53;;
42198;SDS011;27868;45.184;5.786;2022-10-19T16:09:17;7.72;;;2.72;;
42198;SDS011;27868;45.184;5.786;2022-10-19T16:12:04;14.10;;;2.95;;
42198;SDS011;27868;45.184;5.786;2022-10-19T16:14:48;13.20;;;3.40;;
42198;SDS011;27868;45.184;5.786;2022-10-19T16:17:34;8.70;;;2.65;;
42198;SDS011;27868;45.184;5.786;2022-10-19T16:20:20;12.75;;;3.47;;
42198;SDS011;27868;45.184;5.786;2022-10-19T16:23:05;14.30;;;3.53;;
42198;SDS011;27868;45.184;5.786;2022-10-19T16:25:49;16.02;;;3.22;;
42198;SDS011;27868;45.184;5.786;2022-10-19T16:28:35;11.93;;;3.08;;
42198;SDS011;27868;45.184;5.786;2022-10-19T16:31:20;11.05;;;2.97;;
42198;SDS011;27868;45.184;5.786;2022-10-19T16:34:06;10.75;;;3.35;;
42198;SDS011;27868;45.184;5.786;2022-10-19T16:36:50;12.15;;;3.20;;
42198;SDS011;27868;45.184;5.786;2022-10-19T16:39:35;9.90;;;3.08;;
42198;SDS011;27868;45.184;5.786;2022-10-19T16:42:19;10.23;;;2.83;;
42198;SDS011;27868;45.184;5.786;2022-10-19T16:45:04;9.98;;;2.70;;
42198;SDS011;27868;45.184;5.786;2022-10-19T16:47:49;11.25;;;3.15;;
42198;SDS011;27868;45.184;5.786;2022-10-19T16:50:34;12.75;;;3.00;;
42198;SDS011;27868;45.184;5.786;2022-10-19T16:53:19;8.68;;;3.10;;
42198;SDS011;27868;45.184;5.786;2022-10-19T16:56:11;14.65;;;3.58;;
42198;SDS011;27868;45.184;5.786;2022-10-19T16:59:01;12.77;;;3.00;;
42198;SDS011;27868;45.184;5.786;2022-10-19T17:01:49;13.95;;;3.13;;
42198;SDS011;27868;45.184;5.786;2022-10-19T17:04:34;15.50;;;3.42;;
42198;SDS011;27868;45.184;5.786;2022-10-19T17:07:18;11.07;;;3.72;;
42198;SDS011;27868;45.184;5.786;2022-10-19T17:10:04;12.60;;;4.15;;
42198;SDS011;27868;45.184;5.786;2022-10-19T17:12:49;12.43;;;3.33;;
42198;SDS011;27868;45.184;5.786;2022-10-19T17:15:36;16.58;;;3.90;;
42198;SDS011;27868;45.184;5.786;2022-10-19T17:18:21;15.30;;;4.03;;
42198;SDS011;27868;45.184;5.786;2022-10-19T17:21:17;7.95;;;3.40;;
42198;SDS011;27868;45.184;5.786;2022-10-19T17:24:04;12.25;;;3.55;;
42198;SDS011;27868;45.184;5.786;2022-10-19T17:26:51;13.27;;;3.40;;
42198;SDS011;27868;45.184;5.786;2022-10-19T17:29:37;15.02;;;3.65;;
42198;SDS011;27868;45.184;5.786;2022-10-19T17:43:47;8.82;;;3.22;;
42198;SDS011;27868;45.184;5.786;2022-10-19T17:46:35;11.95;;;2.92;;
42198;SDS011;27868;45.184;5.786;2022-10-19T17:49:19;10.32;;;3.38;;
42198;SDS011;27868;45.184;5.786;2022-10-19T17:52:04;12.88;;;3.60;;
42198;SDS011;27868;45.184;5.786;2022-10-19T17:54:48;7.70;;;3.28;;
42198;SDS011;27868;45.184;5.786;2022-10-19T17:57:33;9.43;;;3.47;;
42198;SDS011;27868;45.184;5.786;2022-10-19T18:00:18;13.77;;;3.75;;
42198;SDS011;27868;45.184;5.786;2022-10-19T18:03:03;12.45;;;3.35;;
42198;SDS011;27868;45.184;5.786;2022-10-19T18:05:54;13.73;;;4.05;;
42198;SDS011;27868;45.184;5.786;2022-10-19T18:08:59;10.20;;;3.70;;
42198;SDS011;27868;45.184;5.786;2022-10-19T18:11:45;13.30;;;3.65;;
42198;SDS011;27868;45.184;5.786;2022-10-19T18:14:30;16.75;;;3.45;;
42198;SDS011;27868;45.184;5.786;2022-10-19T18:17:14;11.88;;;4.07;;
42198;SDS011;27868;45.184;5.786;2022-10-19T18:19:59;12.90;;;4.25;;
42198;SDS011;27868;45.184;5.786;2022-10-19T18:22:43;16.60;;;4.25;;
42198;SDS011;27868;45.184;5.786;2022-10-19T18:25:28;11.27;;;4.20;;
42198;SDS011;27868;45.184;5.786;2022-10-19T18:28:12;9.00;;;3.35;;
42198;SDS011;27868;45.184;5.786;2022-10-19T18:31:04;10.25;;;3.63;;
42198;SDS011;27868;45.184;5.786;2022-10-19T18:33:55;11.38;;;3.97;;
42198;SDS011;27868;45.184;5.786;2022-10-19T18:36:41;14.32;;;3.45;;
42198;SDS011;27868;45.184;5.786;2022-10-19T18:39:26;11.82;;;3.03;;
42198;SDS011;27868;45.184;5.786;2022-10-19T18:42:10;10.15;;;3.33;;
42198;SDS011;27868;45.184;5.786;2022-10-19T18:44:55;12.88;;;3.60;;
42198;SDS011;27868;45.184;5.786;2022-10-19T18:47:40;18.95;;;4.13;;
42198;SDS011;27868;45.184;5.786;2022-10-19T18:50:25;13.18;;;3.47;;
42198;SDS011;27868;45.184;5.786;2022-10-19T18:53:09;13.88;;;3.78;;
42198;SDS011;27868;45.184;5.786;2022-10-19T18:56:01;10.23;;;2.97;;
42198;SDS011;27868;45.184;5.786;2022-10-19T18:58:49;14.38;;;3.25;;
42198;SDS011;27868;45.184;5.786;2022-10-19T19:01:34;15.02;;;3.50;;
42198;SDS011;27868;45.184;5.786;2022-10-19T19:04:19;11.82;;;3.63;;